sensor_id;sensor_type;location;lat;lon;timestamp;pressure;altitude;pressure_sealevel;temperature;humidity
38912;BME280;28444;48.056;14.408;2023-01-30T00:01:18;98211.66;;;-0.64;88.43
38912;BME280;28444;48.056;14.408;2023-01-30T00:03:45;98204.41;;;-0.79;89.55
38912;BME280;28444;48.056;14.408;2023-01-30T00:06:12;98204.81;;;-0.86;89.98
38912;BME280;28444;48.056;14.408;2023-01-30T00:08:39;98197.75;;;-0.83;89.71
38912;BME280;28444;48.056;14.408;2023-01-30T00:11:08;98196.97;;;-0.69;89.31
38912;BME280;28444;48.056;14.408;2023-01-30T00:13:35;98188.91;;;-0.69;88.97
38912;BME280;28444;48.056;14.408;2023-01-30T00:16:03;98179.22;;;-0.81;89.20
38912;BME280;28444;48.056;14.408;2023-01-30T00:18:29;98186.34;;;-0.78;89.14
38912;BME280;28444;48.056;14.408;2023-01-30T00:21:01;98174.88;;;-0.79;88.68
38912;BME280;28444;48.056;14.408;2023-01-30T00:23:29;98164.03;;;-0.84;89.57
38912;BME280;28444;48.056;14.408;2023-01-30T00:25:56;98168.03;;;-0.80;88.37
38912;BME280;28444;48.056;14.408;2023-01-30T00:28:24;98161.88;;;-0.80;88.15
38912;BME280;28444;48.056;14.408;2023-01-30T00:30:52;98162.50;;;-0.91;89.37
38912;BME280;28444;48.056;14.408;2023-01-30T00:33:19;98150.41;;;-0.81;88.72
38912;BME280;28444;48.056;14.408;2023-01-30T00:35:48;98145.84;;;-0.75;87.88
38912;BME280;28444;48.056;14.408;2023-01-30T00:38:15;98152.56;;;-0.85;87.67
38912;BME280;28444;48.056;14.408;2023-01-30T00:40:42;98153.28;;;-0.84;88.07
38912;BME280;28444;48.056;14.408;2023-01-30T00:43:11;98155.72;;;-0.86;88.17
38912;BME280;28444;48.056;14.408;2023-01-30T00:45:57;98148.31;;;-0.91;87.87
38912;BME280;28444;48.056;14.408;2023-01-30T00:48:42;98145.72;;;-0.86;88.09
38912;BME280;28444;48.056;14.408;2023-01-30T00:51:09;98146.66;;;-0.89;87.92
38912;BME280;28444;48.056;14.408;2023-01-30T00:53:36;98144.84;;;-0.77;87.59
38912;BME280;28444;48.056;14.408;2023-01-30T00:56:03;98136.97;;;-0.81;88.29
38912;BME280;28444;48.056;14.408;2023-01-30T00:58:29;98129.59;;;-0.86;87.07
38912;BME280;28444;48.056;14.408;2023-01-30T01:00:56;98128.88;;;-0.86;87.47
38912;BME280;28444;48.056;14.408;2023-01-30T01:03:22;98124.97;;;-0.85;87.84
38912;BME280;28444;48.056;14.408;2023-01-30T01:05:49;98128.38;;;-0.85;87.59
38912;BME280;28444;48.056;14.408;2023-01-30T01:08:16;98126.72;;;-0.82;88.50
38912;BME280;28444;48.056;14.408;2023-01-30T01:10:42;98118.59;;;-0.88;88.14
38912;BME280;28444;48.056;14.408;2023-01-30T01:13:09;98118.78;;;-0.91;87.38
38912;BME280;28444;48.056;14.408;2023-01-30T01:15:36;98115.56;;;-0.95;86.94
38912;BME280;28444;48.056;14.408;2023-01-30T01:18:03;98113.41;;;-0.91;87.90
38912;BME280;28444;48.056;14.408;2023-01-30T01:20:29;98105.03;;;-0.99;88.07
38912;BME280;28444;48.056;14.408;2023-01-30T01:22:56;98099.00;;;-0.94;88.36
38912;BME280;28444;48.056;14.408;2023-01-30T01:25:23;98108.94;;;-1.00;88.10
38912;BME280;28444;48.056;14.408;2023-01-30T01:27:50;98100.59;;;-1.02;88.75
38912;BME280;28444;48.056;14.408;2023-01-30T01:30:17;98092.81;;;-1.00;88.51
38912;BME280;28444;48.056;14.408;2023-01-30T01:32:44;98088.66;;;-1.01;88.87
38912;BME280;28444;48.056;14.408;2023-01-30T01:35:11;98078.19;;;-0.99;88.53
38912;BME280;28444;48.056;14.408;2023-01-30T01:37:38;98073.22;;;-1.06;88.74
38912;BME280;28444;48.056;14.408;2023-01-30T01:40:05;98074.44;;;-1.07;88.22
38912;BME280;28444;48.056;14.408;2023-01-30T01:42:51;98080.84;;;-0.99;87.02
38912;BME280;28444;48.056;14.408;2023-01-30T01:45:23;98076.03;;;-1.15;88.53
38912;BME280;28444;48.056;14.408;2023-01-30T01:48:05;98074.22;;;-1.04;88.00
38912;BME280;28444;48.056;14.408;2023-01-30T01:50:46;98078.69;;;-0.95;87.57
38912;BME280;28444;48.056;14.408;2023-01-30T01:53:17;98071.13;;;-0.97;87.62
38912;BME280;28444;48.056;14.408;2023-01-30T01:55:47;98063.88;;;-0.90;87.04
38912;BME280;28444;48.056;14.408;2023-01-30T01:58:24;98059.44;;;-0.93;86.07
38912;BME280;28444;48.056;14.408;2023-01-30T02:00:55;98056.97;;;-0.97;86.02
38912;BME280;28444;48.056;14.408;2023-01-30T02:03:24;98045.53;;;-0.92;86.58
38912;BME280;28444;48.056;14.408;2023-01-30T02:05:55;98031.91;;;-0.88;86.99
38912;BME280;28444;48.056;14.408;2023-01-30T02:08:31;98024.06;;;-0.92;87.69
38912;BME280;28444;48.056;14.408;2023-01-30T02:14:16;98014.22;;;-1.01;87.49
38912;BME280;28444;48.056;14.408;2023-01-30T02:16:45;98021.47;;;-1.07;85.62
38912;BME280;28444;48.056;14.408;2023-01-30T02:19:34;98029.84;;;-0.99;85.67
38912;BME280;28444;48.056;14.408;2023-01-30T02:22:29;98010.06;;;-1.02;84.74
38912;BME280;28444;48.056;14.408;2023-01-30T02:25:35;98017.44;;;-1.17;84.75
38912;BME280;28444;48.056;14.408;2023-01-30T02:28:47;98022.34;;;-1.15;84.90
38912;BME280;28444;48.056;14.408;2023-01-30T02:31:34;98019.88;;;-1.19;84.05
38912;BME280;28444;48.056;14.408;2023-01-30T02:34:33;98020.00;;;-1.28;85.35
38912;BME280;28444;48.056;14.408;2023-01-30T02:37:43;98014.63;;;-1.28;86.25
38912;BME280;28444;48.056;14.408;2023-01-30T02:40:46;98010.41;;;-1.35;87.64
38912;BME280;28444;48.056;14.408;2023-01-30T02:43:38;98006.13;;;-1.47;87.36
38912;BME280;28444;48.056;14.408;2023-01-30T02:46:43;98004.53;;;-1.59;87.88
38912;BME280;28444;48.056;14.408;2023-01-30T02:49:39;98013.63;;;-1.51;87.89
38912;BME280;28444;48.056;14.408;2023-01-30T02:52:09;98018.59;;;-1.44;86.79
38912;BME280;28444;48.056;14.408;2023-01-30T02:54:37;98012.44;;;-1.50;86.22
38912;BME280;28444;48.056;14.408;2023-01-30T02:57:17;98011.00;;;-1.46;86.14
38912;BME280;28444;48.056;14.408;2023-01-30T02:59:46;98008.94;;;-1.56;86.38
38912;BME280;28444;48.056;14.408;2023-01-30T03:11:43;98010.94;;;-1.72;86.86
38912;BME280;28444;48.056;14.408;2023-01-30T03:14:29;98018.72;;;-1.74;86.39
38912;BME280;28444;48.056;14.408;2023-01-30T03:17:02;98011.84;;;-1.75;86.45
38912;BME280;28444;48.056;14.408;2023-01-30T03:19:30;98018.63;;;-1.79;86.18
38912;BME280;28444;48.056;14.408;2023-01-30T03:21:57;98020.50;;;-1.85;86.00
38912;BME280;28444;48.056;14.408;2023-01-30T03:24:23;98017.47;;;-1.93;86.31
38912;BME280;28444;48.056;14.408;2023-01-30T03:27:11;98015.06;;;-1.91;86.55
38912;BME280;28444;48.056;14.408;2023-01-30T03:29:39;98009.97;;;-1.89;87.11
38912;BME280;28444;48.056;14.408;2023-01-30T03:32:05;98008.00;;;-1.74;86.97
38912;BME280;28444;48.056;14.408;2023-01-30T03:34:32;98006.50;;;-1.75;87.21
38912;BME280;28444;48.056;14.408;2023-01-30T03:36:59;98006.88;;;-1.67;87.20
38912;BME280;28444;48.056;14.408;2023-01-30T03:39:26;98011.94;;;-1.69;86.69
38912;BME280;28444;48.056;14.408;2023-01-30T03:41:53;98006.91;;;-1.61;86.98
38912;BME280;28444;48.056;14.408;2023-01-30T03:44:20;98000.34;;;-1.60;86.60
38912;BME280;28444;48.056;14.408;2023-01-30T03:46:46;97994.97;;;-1.60;87.56
38912;BME280;28444;48.056;14.408;2023-01-30T03:49:13;97993.47;;;-1.67;87.25
38912;BME280;28444;48.056;14.408;2023-01-30T03:51:39;97989.22;;;-1.74;87.66
38912;BME280;28444;48.056;14.408;2023-01-30T03:54:06;98005.44;;;-1.62;87.07
38912;BME280;28444;48.056;14.408;2023-01-30T03:56:33;98008.88;;;-1.62;86.97
38912;BME280;28444;48.056;14.408;2023-01-30T03:58:59;97996.88;;;-1.66;86.84
38912;BME280;28444;48.056;14.408;2023-01-30T04:01:26;98003.81;;;-1.75;87.49
38912;BME280;28444;48.056;14.408;2023-01-30T04:03:53;97990.69;;;-1.73;87.71
38912;BME280;28444;48.056;14.408;2023-01-30T04:06:19;97995.31;;;-1.73;87.59
38912;BME280;28444;48.056;14.408;2023-01-30T04:08:46;98000.06;;;-1.83;87.34
38912;BME280;28444;48.056;14.408;2023-01-30T04:11:12;98001.91;;;-1.74;86.66
38912;BME280;28444;48.056;14.408;2023-01-30T04:13:39;97999.13;;;-1.80;86.72
38912;BME280;28444;48.056;14.408;2023-01-30T04:16:20;97995.38;;;-1.88;86.84
38912;BME280;28444;48.056;14.408;2023-01-30T04:18:47;97992.53;;;-1.99;88.12
38912;BME280;28444;48.056;14.408;2023-01-30T04:21:14;97989.00;;;-1.90;87.43
38912;BME280;28444;48.056;14.408;2023-01-30T04:23:41;97988.34;;;-2.00;87.41
38912;BME280;28444;48.056;14.408;2023-01-30T04:26:08;97988.00;;;-2.08;87.53
38912;BME280;28444;48.056;14.408;2023-01-30T04:28:35;97981.66;;;-2.10;88.10
38912;BME280;28444;48.056;14.408;2023-01-30T04:31:02;97964.13;;;-2.26;88.21
38912;BME280;28444;48.056;14.408;2023-01-30T04:33:30;97954.06;;;-2.31;89.49
38912;BME280;28444;48.056;14.408;2023-01-30T04:36:01;97941.94;;;-2.27;88.59
38912;BME280;28444;48.056;14.408;2023-01-30T04:38:30;97943.41;;;-2.26;88.06
38912;BME280;28444;48.056;14.408;2023-01-30T04:40:57;97943.59;;;-2.29;88.20
38912;BME280;28444;48.056;14.408;2023-01-30T04:43:26;97947.66;;;-2.19;87.98
38912;BME280;28444;48.056;14.408;2023-01-30T04:45:53;97944.34;;;-2.14;87.60
38912;BME280;28444;48.056;14.408;2023-01-30T04:48:22;97930.06;;;-2.05;87.33
38912;BME280;28444;48.056;14.408;2023-01-30T04:50:52;97923.22;;;-2.06;87.33
38912;BME280;28444;48.056;14.408;2023-01-30T04:53:20;97918.13;;;-2.04;87.06
38912;BME280;28444;48.056;14.408;2023-01-30T04:55:47;97927.72;;;-1.98;87.06
38912;BME280;28444;48.056;14.408;2023-01-30T04:58:14;97912.44;;;-1.91;86.76
38912;BME280;28444;48.056;14.408;2023-01-30T05:00:41;97909.44;;;-1.99;87.43
38912;BME280;28444;48.056;14.408;2023-01-30T05:03:08;97901.44;;;-1.94;86.47
38912;BME280;28444;48.056;14.408;2023-01-30T05:05:34;97904.00;;;-2.05;86.77
38912;BME280;28444;48.056;14.408;2023-01-30T05:08:01;97911.63;;;-1.98;86.47
38912;BME280;28444;48.056;14.408;2023-01-30T05:10:28;97908.75;;;-1.94;86.09
38912;BME280;28444;48.056;14.408;2023-01-30T05:12:55;97886.91;;;-1.87;87.02
38912;BME280;28444;48.056;14.408;2023-01-30T05:15:21;97899.50;;;-1.93;86.83
38912;BME280;28444;48.056;14.408;2023-01-30T05:17:48;97902.72;;;-1.89;85.48
38912;BME280;28444;48.056;14.408;2023-01-30T05:20:15;97911.13;;;-1.81;85.15
38912;BME280;28444;48.056;14.408;2023-01-30T05:22:41;97933.09;;;-1.77;84.01
38912;BME280;28444;48.056;14.408;2023-01-30T05:25:08;97937.06;;;-1.73;84.13
38912;BME280;28444;48.056;14.408;2023-01-30T05:27:35;97927.38;;;-1.64;83.63
38912;BME280;28444;48.056;14.408;2023-01-30T05:30:02;97918.69;;;-1.59;84.44
38912;BME280;28444;48.056;14.408;2023-01-30T05:32:29;97919.13;;;-1.61;83.95
38912;BME280;28444;48.056;14.408;2023-01-30T05:34:56;97911.41;;;-1.53;83.64
38912;BME280;28444;48.056;14.408;2023-01-30T05:37:23;97912.63;;;-1.54;84.39
38912;BME280;28444;48.056;14.408;2023-01-30T05:39:50;97929.94;;;-1.55;83.32
38912;BME280;28444;48.056;14.408;2023-01-30T05:42:17;97920.19;;;-1.53;83.32
38912;BME280;28444;48.056;14.408;2023-01-30T05:44:43;97930.16;;;-1.59;82.60
38912;BME280;28444;48.056;14.408;2023-01-30T05:47:11;97923.34;;;-1.54;82.33
38912;BME280;28444;48.056;14.408;2023-01-30T05:49:39;97930.19;;;-1.53;82.39
38912;BME280;28444;48.056;14.408;2023-01-30T05:52:05;97920.59;;;-1.60;83.50
38912;BME280;28444;48.056;14.408;2023-01-30T05:54:33;97907.25;;;-1.54;83.75
38912;BME280;28444;48.056;14.408;2023-01-30T05:57:00;97897.78;;;-1.50;83.43
38912;BME280;28444;48.056;14.408;2023-01-30T05:59:27;97868.50;;;-1.53;84.26
38912;BME280;28444;48.056;14.408;2023-01-30T06:01:54;97877.97;;;-1.58;84.00
38912;BME280;28444;48.056;14.408;2023-01-30T06:04:20;97872.50;;;-1.43;83.71
38912;BME280;28444;48.056;14.408;2023-01-30T06:06:48;97864.94;;;-1.44;82.85
38912;BME280;28444;48.056;14.408;2023-01-30T06:09:15;97854.25;;;-1.39;82.78
38912;BME280;28444;48.056;14.408;2023-01-30T06:11:42;97830.00;;;-1.50;83.42
38912;BME280;28444;48.056;14.408;2023-01-30T06:14:08;97838.47;;;-1.57;85.59
38912;BME280;28444;48.056;14.408;2023-01-30T06:16:35;97828.94;;;-1.58;85.40
38912;BME280;28444;48.056;14.408;2023-01-30T06:19:02;97838.25;;;-1.54;85.03
38912;BME280;28444;48.056;14.408;2023-01-30T06:21:28;97830.06;;;-1.44;84.00
38912;BME280;28444;48.056;14.408;2023-01-30T06:23:56;97813.66;;;-1.52;84.00
38912;BME280;28444;48.056;14.408;2023-01-30T06:26:22;97828.34;;;-1.42;84.03
38912;BME280;28444;48.056;14.408;2023-01-30T06:28:49;97830.09;;;-1.39;84.10
38912;BME280;28444;48.056;14.408;2023-01-30T06:31:15;97829.31;;;-1.45;84.30
38912;BME280;28444;48.056;14.408;2023-01-30T06:33:43;97844.34;;;-1.53;84.51
38912;BME280;28444;48.056;14.408;2023-01-30T06:36:10;97864.44;;;-1.43;83.65
38912;BME280;28444;48.056;14.408;2023-01-30T06:38:37;97852.47;;;-1.48;82.67
38912;BME280;28444;48.056;14.408;2023-01-30T06:41:04;97848.31;;;-1.49;82.51
38912;BME280;28444;48.056;14.408;2023-01-30T06:43:30;97843.69;;;-1.48;82.65
38912;BME280;28444;48.056;14.408;2023-01-30T06:45:58;97845.84;;;-1.52;83.41
38912;BME280;28444;48.056;14.408;2023-01-30T06:48:25;97846.38;;;-1.48;82.28
38912;BME280;28444;48.056;14.408;2023-01-30T06:50:52;97852.34;;;-1.59;83.17
38912;BME280;28444;48.056;14.408;2023-01-30T06:53:18;97851.81;;;-1.63;83.50
38912;BME280;28444;48.056;14.408;2023-01-30T06:55:45;97857.31;;;-1.52;83.33
38912;BME280;28444;48.056;14.408;2023-01-30T06:58:13;97857.81;;;-1.48;81.02
38912;BME280;28444;48.056;14.408;2023-01-30T07:00:41;97878.97;;;-1.55;81.22
38912;BME280;28444;48.056;14.408;2023-01-30T07:03:13;97863.28;;;-1.62;81.71
38912;BME280;28444;48.056;14.408;2023-01-30T07:05:40;97862.06;;;-1.61;81.98
38912;BME280;28444;48.056;14.408;2023-01-30T07:08:08;97844.72;;;-1.66;83.12
38912;BME280;28444;48.056;14.408;2023-01-30T07:10:35;97851.56;;;-1.65;82.57
38912;BME280;28444;48.056;14.408;2023-01-30T07:13:02;97851.81;;;-1.63;83.01
38912;BME280;28444;48.056;14.408;2023-01-30T07:15:29;97856.91;;;-1.65;82.74
38912;BME280;28444;48.056;14.408;2023-01-30T07:17:56;97866.59;;;-1.73;83.82
38912;BME280;28444;48.056;14.408;2023-01-30T07:20:23;97857.41;;;-1.66;82.97
38912;BME280;28444;48.056;14.408;2023-01-30T07:22:54;97858.34;;;-1.70;83.64
38912;BME280;28444;48.056;14.408;2023-01-30T07:25:22;97860.94;;;-1.75;83.12
38912;BME280;28444;48.056;14.408;2023-01-30T07:27:54;97843.06;;;-1.84;83.75
38912;BME280;28444;48.056;14.408;2023-01-30T07:30:21;97843.06;;;-1.84;83.06
38912;BME280;28444;48.056;14.408;2023-01-30T07:32:49;97842.78;;;-1.86;83.14
38912;BME280;28444;48.056;14.408;2023-01-30T07:35:16;97837.69;;;-1.84;83.50
38912;BME280;28444;48.056;14.408;2023-01-30T07:37:47;97839.69;;;-1.79;83.22
38912;BME280;28444;48.056;14.408;2023-01-30T07:40:14;97838.97;;;-1.79;83.01
38912;BME280;28444;48.056;14.408;2023-01-30T07:42:41;97832.59;;;-1.82;83.61
38912;BME280;28444;48.056;14.408;2023-01-30T07:45:08;97820.34;;;-1.88;83.85
38912;BME280;28444;48.056;14.408;2023-01-30T07:47:35;97828.19;;;-1.85;84.26
38912;BME280;28444;48.056;14.408;2023-01-30T07:50:02;97817.59;;;-1.74;84.27
38912;BME280;28444;48.056;14.408;2023-01-30T07:52:29;97816.88;;;-1.68;83.34
38912;BME280;28444;48.056;14.408;2023-01-30T07:54:55;97804.69;;;-1.70;84.29
38912;BME280;28444;48.056;14.408;2023-01-30T07:57:22;97802.31;;;-1.88;84.61
38912;BME280;28444;48.056;14.408;2023-01-30T07:59:48;97809.44;;;-1.85;84.55
38912;BME280;28444;48.056;14.408;2023-01-30T08:02:15;97797.31;;;-1.75;84.24
38912;BME280;28444;48.056;14.408;2023-01-30T08:04:42;97798.28;;;-1.78;83.85
38912;BME280;28444;48.056;14.408;2023-01-30T08:07:08;97786.34;;;-1.77;83.47
38912;BME280;28444;48.056;14.408;2023-01-30T08:09:35;97770.78;;;-1.73;83.49
38912;BME280;28444;48.056;14.408;2023-01-30T08:12:02;97762.72;;;-1.73;83.39
38912;BME280;28444;48.056;14.408;2023-01-30T08:14:28;97766.97;;;-1.60;82.15
38912;BME280;28444;48.056;14.408;2023-01-30T08:16:56;97785.00;;;-1.35;80.35
38912;BME280;28444;48.056;14.408;2023-01-30T08:19:23;97807.25;;;-1.29;78.51
38912;BME280;28444;48.056;14.408;2023-01-30T08:21:49;97806.56;;;-1.24;78.81
38912;BME280;28444;48.056;14.408;2023-01-30T08:24:16;97799.28;;;-1.17;78.65
38912;BME280;28444;48.056;14.408;2023-01-30T08:26:43;97797.16;;;-1.08;78.13
38912;BME280;28444;48.056;14.408;2023-01-30T08:29:09;97804.56;;;-0.97;77.62
38912;BME280;28444;48.056;14.408;2023-01-30T08:31:36;97808.09;;;-0.80;76.81
38912;BME280;28444;48.056;14.408;2023-01-30T08:34:02;97812.84;;;-0.63;76.58
38912;BME280;28444;48.056;14.408;2023-01-30T08:36:29;97805.53;;;-0.57;77.79
38912;BME280;28444;48.056;14.408;2023-01-30T08:38:56;97806.06;;;-0.47;76.53
38912;BME280;28444;48.056;14.408;2023-01-30T08:41:23;97800.28;;;-0.35;75.02
38912;BME280;28444;48.056;14.408;2023-01-30T08:43:49;97802.28;;;-0.24;75.44
38912;BME280;28444;48.056;14.408;2023-01-30T08:46:16;97792.03;;;-0.20;74.99
38912;BME280;28444;48.056;14.408;2023-01-30T08:48:43;97787.91;;;-0.04;75.42
38912;BME280;28444;48.056;14.408;2023-01-30T08:51:16;97794.31;;;0.04;73.23
38912;BME280;28444;48.056;14.408;2023-01-30T08:53:42;97793.38;;;0.18;73.23
38912;BME280;28444;48.056;14.408;2023-01-30T08:56:09;97794.06;;;0.02;74.39
38912;BME280;28444;48.056;14.408;2023-01-30T08:58:35;97800.19;;;0.08;73.04
38912;BME280;28444;48.056;14.408;2023-01-30T09:01:06;97788.22;;;0.20;73.86
38912;BME280;28444;48.056;14.408;2023-01-30T09:03:32;97766.00;;;0.42;70.66
38912;BME280;28444;48.056;14.408;2023-01-30T09:05:59;97776.03;;;0.42;72.50
38912;BME280;28444;48.056;14.408;2023-01-30T09:08:26;97770.91;;;0.55;71.29
38912;BME280;28444;48.056;14.408;2023-01-30T09:10:57;97764.31;;;0.79;69.15
38912;BME280;28444;48.056;14.408;2023-01-30T09:13:24;97762.34;;;0.79;70.83
38912;BME280;28444;48.056;14.408;2023-01-30T09:15:51;97751.56;;;0.85;69.44
38912;BME280;28444;48.056;14.408;2023-01-30T09:18:18;97746.16;;;0.90;70.34
38912;BME280;28444;48.056;14.408;2023-01-30T09:20:45;97744.94;;;1.03;71.36
38912;BME280;28444;48.056;14.408;2023-01-30T09:23:11;97736.34;;;1.10;73.01
38912;BME280;28444;48.056;14.408;2023-01-30T09:25:38;97732.44;;;0.94;74.23
38912;BME280;28444;48.056;14.408;2023-01-30T09:28:05;97749.38;;;0.94;69.38
38912;BME280;28444;48.056;14.408;2023-01-30T09:30:31;97736.56;;;1.23;64.38
38912;BME280;28444;48.056;14.408;2023-01-30T09:32:58;97740.41;;;1.50;62.43
38912;BME280;28444;48.056;14.408;2023-01-30T09:35:25;97728.34;;;1.62;62.63
38912;BME280;28444;48.056;14.408;2023-01-30T09:37:52;97720.22;;;1.68;62.41
38912;BME280;28444;48.056;14.408;2023-01-30T09:40:22;97721.84;;;1.88;62.72
38912;BME280;28444;48.056;14.408;2023-01-30T09:43:34;97718.16;;;1.91;61.15
38912;BME280;28444;48.056;14.408;2023-01-30T09:46:24;97702.97;;;1.88;62.12
38912;BME280;28444;48.056;14.408;2023-01-30T09:52:15;97704.38;;;1.95;57.88
38912;BME280;28444;48.056;14.408;2023-01-30T09:54:46;97692.81;;;2.05;57.96
38912;BME280;28444;48.056;14.408;2023-01-30T09:57:20;97689.81;;;2.14;59.83
38912;BME280;28444;48.056;14.408;2023-01-30T10:03:14;97679.28;;;2.11;59.51
38912;BME280;28444;48.056;14.408;2023-01-30T10:08:54;97649.56;;;2.16;61.07
38912;BME280;28444;48.056;14.408;2023-01-30T10:17:29;97654.19;;;2.22;63.41
38912;BME280;28444;48.056;14.408;2023-01-30T10:23:21;97641.06;;;2.37;64.11
38912;BME280;28444;48.056;14.408;2023-01-30T10:26:12;97636.22;;;2.30;65.48
38912;BME280;28444;48.056;14.408;2023-01-30T10:28:47;97641.91;;;2.51;64.29
38912;BME280;28444;48.056;14.408;2023-01-30T10:31:41;97635.00;;;2.55;61.95
38912;BME280;28444;48.056;14.408;2023-01-30T10:34:18;97636.69;;;2.58;62.04
38912;BME280;28444;48.056;14.408;2023-01-30T10:36:55;97633.53;;;2.54;60.97
38912;BME280;28444;48.056;14.408;2023-01-30T10:39:33;97632.38;;;2.69;61.77
38912;BME280;28444;48.056;14.408;2023-01-30T10:42:13;97633.63;;;2.68;60.42
38912;BME280;28444;48.056;14.408;2023-01-30T10:44:40;97620.84;;;2.68;59.74
38912;BME280;28444;48.056;14.408;2023-01-30T10:47:38;97618.69;;;2.67;61.71
38912;BME280;28444;48.056;14.408;2023-01-30T10:50:16;97618.84;;;2.74;61.78
38912;BME280;28444;48.056;14.408;2023-01-30T10:52:56;97609.44;;;2.56;61.56
38912;BME280;28444;48.056;14.408;2023-01-30T10:55:46;97608.44;;;2.59;60.34
38912;BME280;28444;48.056;14.408;2023-01-30T10:58:35;97596.41;;;2.60;62.03
38912;BME280;28444;48.056;14.408;2023-01-30T11:01:23;97592.75;;;2.58;62.99
38912;BME280;28444;48.056;14.408;2023-01-30T11:04:02;97592.41;;;2.67;63.96
38912;BME280;28444;48.056;14.408;2023-01-30T11:06:30;97583.34;;;2.64;63.50
38912;BME280;28444;48.056;14.408;2023-01-30T11:08:58;97582.00;;;2.52;63.66
38912;BME280;28444;48.056;14.408;2023-01-30T11:11:32;97570.25;;;2.50;64.61
38912;BME280;28444;48.056;14.408;2023-01-30T11:14:09;97552.75;;;2.56;63.22
38912;BME280;28444;48.056;14.408;2023-01-30T11:16:56;97547.88;;;2.55;62.60
38912;BME280;28444;48.056;14.408;2023-01-30T11:19:30;97540.34;;;2.48;64.74
38912;BME280;28444;48.056;14.408;2023-01-30T11:22:02;97541.47;;;2.58;64.16
38912;BME280;28444;48.056;14.408;2023-01-30T11:24:37;97528.13;;;2.65;63.97
38912;BME280;28444;48.056;14.408;2023-01-30T11:27:16;97526.44;;;2.62;64.44
38912;BME280;28444;48.056;14.408;2023-01-30T11:29:43;97521.19;;;2.70;65.24
38912;BME280;28444;48.056;14.408;2023-01-30T11:32:14;97531.25;;;2.70;63.02
38912;BME280;28444;48.056;14.408;2023-01-30T11:37:46;97517.81;;;2.83;64.08
38912;BME280;28444;48.056;14.408;2023-01-30T11:40:26;97511.63;;;2.88;64.05
38912;BME280;28444;48.056;14.408;2023-01-30T11:43:04;97494.75;;;2.82;65.94
38912;BME280;28444;48.056;14.408;2023-01-30T11:45:38;97504.84;;;2.81;66.62
38912;BME280;28444;48.056;14.408;2023-01-30T11:48:13;97491.41;;;2.95;66.35
38912;BME280;28444;48.056;14.408;2023-01-30T11:51:03;97481.03;;;2.99;66.92
38912;BME280;28444;48.056;14.408;2023-01-30T11:53:34;97477.81;;;3.00;66.88
38912;BME280;28444;48.056;14.408;2023-01-30T11:56:19;97472.25;;;3.11;66.32
38912;BME280;28444;48.056;14.408;2023-01-30T11:59:01;97468.09;;;3.10;68.09
38912;BME280;28444;48.056;14.408;2023-01-30T12:01:30;97463.94;;;3.09;68.00
38912;BME280;28444;48.056;14.408;2023-01-30T12:03:59;97465.53;;;3.18;67.71
38912;BME280;28444;48.056;14.408;2023-01-30T12:06:31;97452.19;;;3.07;68.65
38912;BME280;28444;48.056;14.408;2023-01-30T12:08:58;97443.25;;;3.12;69.45
38912;BME280;28444;48.056;14.408;2023-01-30T12:11:45;97435.78;;;3.18;69.42
38912;BME280;28444;48.056;14.408;2023-01-30T12:14:33;97435.06;;;3.18;69.80
38912;BME280;28444;48.056;14.408;2023-01-30T12:17:13;97433.09;;;3.18;70.82
38912;BME280;28444;48.056;14.408;2023-01-30T12:20:10;97426.31;;;3.11;70.83
38912;BME280;28444;48.056;14.408;2023-01-30T12:23:01;97418.31;;;3.19;70.81
38912;BME280;28444;48.056;14.408;2023-01-30T12:25:40;97405.88;;;3.16;71.29
38912;BME280;28444;48.056;14.408;2023-01-30T12:30:55;97404.09;;;3.19;71.54
38912;BME280;28444;48.056;14.408;2023-01-30T12:33:28;97400.59;;;3.24;71.05
38912;BME280;28444;48.056;14.408;2023-01-30T12:36:07;97395.56;;;3.14;71.60
38912;BME280;28444;48.056;14.408;2023-01-30T12:43:38;97369.56;;;3.11;72.36
38912;BME280;28444;48.056;14.408;2023-01-30T12:48:46;97386.81;;;3.08;71.23
38912;BME280;28444;48.056;14.408;2023-01-30T12:51:41;97386.19;;;3.02;72.82
38912;BME280;28444;48.056;14.408;2023-01-30T12:54:36;97396.28;;;2.83;73.21
38912;BME280;28444;48.056;14.408;2023-01-30T13:03:44;97398.34;;;2.58;75.59
38912;BME280;28444;48.056;14.408;2023-01-30T13:07:01;97397.91;;;2.35;77.02
38912;BME280;28444;48.056;14.408;2023-01-30T13:09:37;97381.28;;;2.31;77.92
38912;BME280;28444;48.056;14.408;2023-01-30T13:12:26;97375.78;;;2.17;78.68
38912;BME280;28444;48.056;14.408;2023-01-30T13:18:09;97395.16;;;1.97;82.34
38912;BME280;28444;48.056;14.408;2023-01-30T13:21:16;97393.25;;;1.92;84.05
38912;BME280;28444;48.056;14.408;2023-01-30T13:24:16;97384.94;;;1.90;84.37
38912;BME280;28444;48.056;14.408;2023-01-30T13:26:40;97388.97;;;1.78;86.90
38912;BME280;28444;48.056;14.408;2023-01-30T13:29:15;97411.22;;;1.59;88.67
38912;BME280;28444;48.056;14.408;2023-01-30T13:31:51;97404.16;;;1.56;90.47
38912;BME280;28444;48.056;14.408;2023-01-30T13:34:39;97415.97;;;1.48;92.49
38912;BME280;28444;48.056;14.408;2023-01-30T13:37:14;97411.88;;;1.41;95.36
38912;BME280;28444;48.056;14.408;2023-01-30T13:40:17;97427.91;;;1.28;96.39
38912;BME280;28444;48.056;14.408;2023-01-30T13:43:14;97423.53;;;1.25;97.68
38912;BME280;28444;48.056;14.408;2023-01-30T13:45:46;97422.88;;;1.13;99.93
38912;BME280;28444;48.056;14.408;2023-01-30T13:51:40;97423.25;;;0.98;100.00
38912;BME280;28444;48.056;14.408;2023-01-30T14:00:30;97430.63;;;0.92;100.00
38912;BME280;28444;48.056;14.408;2023-01-30T14:08:53;97434.91;;;0.70;100.00
38912;BME280;28444;48.056;14.408;2023-01-30T14:11:34;97438.50;;;0.84;100.00
38912;BME280;28444;48.056;14.408;2023-01-30T14:16:46;97435.81;;;0.79;100.00
38912;BME280;28444;48.056;14.408;2023-01-30T14:19:31;97439.50;;;0.81;100.00
38912;BME280;28444;48.056;14.408;2023-01-30T14:22:01;97436.53;;;0.85;100.00
38912;BME280;28444;48.056;14.408;2023-01-30T14:24:29;97427.00;;;0.84;100.00
38912;BME280;28444;48.056;14.408;2023-01-30T14:27:01;97439.41;;;0.98;100.00
38912;BME280;28444;48.056;14.408;2023-01-30T14:32:33;97437.69;;;0.95;100.00
38912;BME280;28444;48.056;14.408;2023-01-30T14:35:19;97436.75;;;0.87;100.00